sensor_id;sensor_type;location;lat;lon;timestamp;P1;durP1;ratioP1;P2;durP2;ratioP2
17650;SDS011;26663;59.302;18.082;2023-07-30T00:00:12;4.93;;;2.63;;
17650;SDS011;26663;59.302;18.082;2023-07-30T00:03:16;2.70;;;2.50;;
17650;SDS011;26663;59.302;18.082;2023-07-30T00:06:20;2.70;;;2.47;;
17650;SDS011;26663;59.302;18.082;2023-07-30T00:09:24;2.75;;;2.55;;
17650;SDS011;26663;59.302;18.082;2023-07-30T00:12:28;4.10;;;2.65;;
17650;SDS011;26663;59.302;18.082;2023-07-30T00:15:33;2.70;;;2.60;;
17650;SDS011;26663;59.302;18.082;2023-07-30T00:18:37;2.70;;;2.50;;
17650;SDS011;26663;59.302;18.082;2023-07-30T00:21:41;3.13;;;2.80;;
17650;SDS011;26663;59.302;18.082;2023-07-30T00:24:48;4.45;;;2.72;;
17650;SDS011;26663;59.302;18.082;2023-07-30T00:27:52;2.92;;;2.83;;
17650;SDS011;26663;59.302;18.082;2023-07-30T00:30:57;3.05;;;2.85;;
17650;SDS011;26663;59.302;18.082;2023-07-30T00:34:01;3.05;;;2.70;;
17650;SDS011;26663;59.302;18.082;2023-07-30T00:37:05;2.83;;;2.72;;
17650;SDS011;26663;59.302;18.082;2023-07-30T00:40:09;2.75;;;2.60;;
17650;SDS011;26663;59.302;18.082;2023-07-30T00:43:14;3.08;;;2.83;;
17650;SDS011;26663;59.302;18.082;2023-07-30T00:46:20;5.90;;;2.83;;
17650;SDS011;26663;59.302;18.082;2023-07-30T00:49:24;3.08;;;2.90;;
17650;SDS011;26663;59.302;18.082;2023-07-30T00:52:27;3.35;;;3.10;;
17650;SDS011;26663;59.302;18.082;2023-07-30T00:55:32;3.22;;;2.90;;
17650;SDS011;26663;59.302;18.082;2023-07-30T00:58:37;3.47;;;2.60;;
17650;SDS011;26663;59.302;18.082;2023-07-30T01:01:43;2.92;;;2.80;;
17650;SDS011;26663;59.302;18.082;2023-07-30T01:04:49;3.67;;;2.83;;
17650;SDS011;26663;59.302;18.082;2023-07-30T01:07:54;3.15;;;3.00;;
17650;SDS011;26663;59.302;18.082;2023-07-30T01:10:58;4.05;;;2.78;;
17650;SDS011;26663;59.302;18.082;2023-07-30T01:14:02;2.85;;;2.65;;
17650;SDS011;26663;59.302;18.082;2023-07-30T01:17:07;3.78;;;3.17;;
17650;SDS011;26663;59.302;18.082;2023-07-30T01:20:11;3.25;;;2.80;;
17650;SDS011;26663;59.302;18.082;2023-07-30T01:23:16;3.42;;;3.08;;
17650;SDS011;26663;59.302;18.082;2023-07-30T01:26:22;3.17;;;3.08;;
17650;SDS011;26663;59.302;18.082;2023-07-30T01:29:28;3.13;;;2.47;;
17650;SDS011;26663;59.302;18.082;2023-07-30T01:32:36;4.15;;;2.90;;
17650;SDS011;26663;59.302;18.082;2023-07-30T01:35:41;3.33;;;3.13;;
17650;SDS011;26663;59.302;18.082;2023-07-30T01:38:46;3.20;;;3.05;;
17650;SDS011;26663;59.302;18.082;2023-07-30T01:41:52;3.40;;;3.10;;
17650;SDS011;26663;59.302;18.082;2023-07-30T01:44:56;3.08;;;2.97;;
17650;SDS011;26663;59.302;18.082;2023-07-30T01:48:00;3.35;;;3.15;;
17650;SDS011;26663;59.302;18.082;2023-07-30T01:51:04;3.70;;;3.50;;
17650;SDS011;26663;59.302;18.082;2023-07-30T01:54:09;4.40;;;3.20;;
17650;SDS011;26663;59.302;18.082;2023-07-30T01:57:13;3.60;;;3.30;;
17650;SDS011;26663;59.302;18.082;2023-07-30T02:00:17;3.10;;;3.00;;
17650;SDS011;26663;59.302;18.082;2023-07-30T02:03:21;3.42;;;3.22;;
17650;SDS011;26663;59.302;18.082;2023-07-30T02:06:25;3.28;;;3.13;;
17650;SDS011;26663;59.302;18.082;2023-07-30T02:09:31;3.50;;;3.30;;
17650;SDS011;26663;59.302;18.082;2023-07-30T02:12:35;6.30;;;3.13;;
17650;SDS011;26663;59.302;18.082;2023-07-30T02:15:40;3.75;;;3.45;;
17650;SDS011;26663;59.302;18.082;2023-07-30T02:18:44;3.45;;;3.35;;
17650;SDS011;26663;59.302;18.082;2023-07-30T02:21:49;3.75;;;3.50;;
17650;SDS011;26663;59.302;18.082;2023-07-30T02:24:54;2.95;;;2.85;;
17650;SDS011;26663;59.302;18.082;2023-07-30T02:27:59;3.70;;;3.58;;
17650;SDS011;26663;59.302;18.082;2023-07-30T02:31:04;3.60;;;3.40;;
17650;SDS011;26663;59.302;18.082;2023-07-30T02:34:07;3.80;;;3.50;;
17650;SDS011;26663;59.302;18.082;2023-07-30T02:37:11;3.60;;;3.20;;
17650;SDS011;26663;59.302;18.082;2023-07-30T02:40:16;3.60;;;3.38;;
17650;SDS011;26663;59.302;18.082;2023-07-30T02:43:20;3.53;;;3.42;;
17650;SDS011;26663;59.302;18.082;2023-07-30T02:46:24;3.88;;;3.50;;
17650;SDS011;26663;59.302;18.082;2023-07-30T02:49:28;3.60;;;3.42;;
17650;SDS011;26663;59.302;18.082;2023-07-30T02:52:32;3.88;;;3.55;;
17650;SDS011;26663;59.302;18.082;2023-07-30T02:55:37;4.22;;;3.90;;
17650;SDS011;26663;59.302;18.082;2023-07-30T02:58:41;4.65;;;3.90;;
17650;SDS011;26663;59.302;18.082;2023-07-30T03:01:45;4.00;;;3.70;;
17650;SDS011;26663;59.302;18.082;2023-07-30T03:04:49;3.67;;;3.47;;
17650;SDS011;26663;59.302;18.082;2023-07-30T03:07:53;4.22;;;3.88;;
17650;SDS011;26663;59.302;18.082;2023-07-30T03:10:59;8.07;;;3.80;;
17650;SDS011;26663;59.302;18.082;2023-07-30T03:14:03;3.95;;;3.45;;
17650;SDS011;26663;59.302;18.082;2023-07-30T03:17:07;3.85;;;3.53;;
17650;SDS011;26663;59.302;18.082;2023-07-30T03:20:11;3.75;;;3.45;;
17650;SDS011;26663;59.302;18.082;2023-07-30T03:23:14;3.63;;;3.33;;
17650;SDS011;26663;59.302;18.082;2023-07-30T03:26:20;3.85;;;3.47;;
17650;SDS011;26663;59.302;18.082;2023-07-30T03:29:24;3.80;;;3.70;;
17650;SDS011;26663;59.302;18.082;2023-07-30T03:32:28;3.92;;;3.63;;
17650;SDS011;26663;59.302;18.082;2023-07-30T03:35:32;3.95;;;3.47;;
17650;SDS011;26663;59.302;18.082;2023-07-30T03:38:35;3.70;;;3.50;;
17650;SDS011;26663;59.302;18.082;2023-07-30T03:41:41;4.65;;;4.28;;
17650;SDS011;26663;59.302;18.082;2023-07-30T03:44:47;4.63;;;3.88;;
17650;SDS011;26663;59.302;18.082;2023-07-30T03:47:50;4.35;;;3.88;;
17650;SDS011;26663;59.302;18.082;2023-07-30T03:50:54;5.70;;;4.10;;
17650;SDS011;26663;59.302;18.082;2023-07-30T03:53:59;4.47;;;3.58;;
17650;SDS011;26663;59.302;18.082;2023-07-30T03:57:04;3.90;;;3.70;;
17650;SDS011;26663;59.302;18.082;2023-07-30T04:00:08;4.38;;;3.53;;
17650;SDS011;26663;59.302;18.082;2023-07-30T04:03:16;3.78;;;3.67;;
17650;SDS011;26663;59.302;18.082;2023-07-30T04:06:20;4.20;;;3.90;;
17650;SDS011;26663;59.302;18.082;2023-07-30T04:09:24;4.18;;;3.85;;
17650;SDS011;26663;59.302;18.082;2023-07-30T04:12:30;4.07;;;3.70;;
17650;SDS011;26663;59.302;18.082;2023-07-30T04:15:33;5.75;;;4.30;;
17650;SDS011;26663;59.302;18.082;2023-07-30T04:18:37;4.47;;;4.18;;
17650;SDS011;26663;59.302;18.082;2023-07-30T04:21:41;5.00;;;4.32;;
17650;SDS011;26663;59.302;18.082;2023-07-30T04:24:45;5.05;;;4.22;;
17650;SDS011;26663;59.302;18.082;2023-07-30T04:27:51;4.18;;;3.80;;
17650;SDS011;26663;59.302;18.082;2023-07-30T04:30:54;4.10;;;3.80;;
17650;SDS011;26663;59.302;18.082;2023-07-30T04:33:59;5.38;;;4.30;;
17650;SDS011;26663;59.302;18.082;2023-07-30T04:37:03;7.15;;;3.70;;
17650;SDS011;26663;59.302;18.082;2023-07-30T04:40:10;4.15;;;3.85;;
17650;SDS011;26663;59.302;18.082;2023-07-30T04:43:16;5.43;;;4.15;;
17650;SDS011;26663;59.302;18.082;2023-07-30T04:46:22;3.92;;;3.72;;
17650;SDS011;26663;59.302;18.082;2023-07-30T04:49:28;5.68;;;4.47;;
17650;SDS011;26663;59.302;18.082;2023-07-30T04:52:31;5.80;;;5.07;;
17650;SDS011;26663;59.302;18.082;2023-07-30T04:55:35;8.50;;;4.53;;
17650;SDS011;26663;59.302;18.082;2023-07-30T04:58:41;4.35;;;4.15;;
17650;SDS011;26663;59.302;18.082;2023-07-30T05:01:45;6.78;;;4.20;;
17650;SDS011;26663;59.302;18.082;2023-07-30T05:04:49;5.05;;;4.38;;
17650;SDS011;26663;59.302;18.082;2023-07-30T05:07:53;5.05;;;4.55;;
17650;SDS011;26663;59.302;18.082;2023-07-30T05:10:57;6.30;;;4.75;;
17650;SDS011;26663;59.302;18.082;2023-07-30T05:14:02;4.90;;;4.50;;
17650;SDS011;26663;59.302;18.082;2023-07-30T05:17:06;5.78;;;4.72;;
17650;SDS011;26663;59.302;18.082;2023-07-30T05:20:10;4.30;;;4.10;;
17650;SDS011;26663;59.302;18.082;2023-07-30T05:23:14;4.28;;;4.05;;
17650;SDS011;26663;59.302;18.082;2023-07-30T05:26:18;7.22;;;4.57;;
17650;SDS011;26663;59.302;18.082;2023-07-30T05:29:23;5.18;;;4.35;;
17650;SDS011;26663;59.302;18.082;2023-07-30T05:32:27;4.55;;;4.32;;
17650;SDS011;26663;59.302;18.082;2023-07-30T05:35:31;5.05;;;4.45;;
17650;SDS011;26663;59.302;18.082;2023-07-30T05:38:34;4.82;;;4.43;;
17650;SDS011;26663;59.302;18.082;2023-07-30T05:41:38;4.82;;;4.50;;
17650;SDS011;26663;59.302;18.082;2023-07-30T05:44:43;4.93;;;4.38;;
17650;SDS011;26663;59.302;18.082;2023-07-30T05:47:47;4.72;;;3.90;;
17650;SDS011;26663;59.302;18.082;2023-07-30T05:50:51;4.40;;;4.07;;
17650;SDS011;26663;59.302;18.082;2023-07-30T05:53:55;5.40;;;4.47;;
17650;SDS011;26663;59.302;18.082;2023-07-30T05:56:58;4.80;;;4.50;;
17650;SDS011;26663;59.302;18.082;2023-07-30T06:00:04;4.45;;;4.05;;
17650;SDS011;26663;59.302;18.082;2023-07-30T06:03:15;6.43;;;4.40;;
17650;SDS011;26663;59.302;18.082;2023-07-30T06:06:19;3.92;;;3.60;;
17650;SDS011;26663;59.302;18.082;2023-07-30T06:09:29;4.22;;;3.85;;
17650;SDS011;26663;59.302;18.082;2023-07-30T06:12:33;4.45;;;4.18;;
17650;SDS011;26663;59.302;18.082;2023-07-30T06:15:38;4.15;;;3.83;;
17650;SDS011;26663;59.302;18.082;2023-07-30T06:18:42;6.85;;;3.60;;
17650;SDS011;26663;59.302;18.082;2023-07-30T06:21:46;3.88;;;3.60;;
17650;SDS011;26663;59.302;18.082;2023-07-30T06:24:50;4.00;;;3.70;;
17650;SDS011;26663;59.302;18.082;2023-07-30T06:27:54;6.43;;;3.97;;
17650;SDS011;26663;59.302;18.082;2023-07-30T06:31:01;4.13;;;3.90;;
17650;SDS011;26663;59.302;18.082;2023-07-30T06:34:04;4.38;;;3.90;;
17650;SDS011;26663;59.302;18.082;2023-07-30T06:37:08;4.60;;;4.35;;
17650;SDS011;26663;59.302;18.082;2023-07-30T06:40:12;4.18;;;3.75;;
17650;SDS011;26663;59.302;18.082;2023-07-30T06:43:16;4.93;;;4.38;;
17650;SDS011;26663;59.302;18.082;2023-07-30T06:46:21;4.32;;;3.95;;
17650;SDS011;26663;59.302;18.082;2023-07-30T06:49:25;4.60;;;4.20;;
17650;SDS011;26663;59.302;18.082;2023-07-30T06:52:29;4.82;;;4.35;;
17650;SDS011;26663;59.302;18.082;2023-07-30T06:55:33;4.20;;;3.90;;
17650;SDS011;26663;59.302;18.082;2023-07-30T06:58:36;4.10;;;3.90;;
17650;SDS011;26663;59.302;18.082;2023-07-30T07:01:43;5.03;;;4.63;;
17650;SDS011;26663;59.302;18.082;2023-07-30T07:04:47;5.35;;;4.70;;
17650;SDS011;26663;59.302;18.082;2023-07-30T07:07:51;4.82;;;4.38;;
17650;SDS011;26663;59.302;18.082;2023-07-30T07:10:54;4.97;;;4.55;;
17650;SDS011;26663;59.302;18.082;2023-07-30T07:13:58;4.88;;;4.68;;
17650;SDS011;26663;59.302;18.082;2023-07-30T07:17:04;7.03;;;5.13;;
17650;SDS011;26663;59.302;18.082;2023-07-30T07:20:08;4.75;;;4.45;;
17650;SDS011;26663;59.302;18.082;2023-07-30T07:23:13;4.78;;;4.50;;
17650;SDS011;26663;59.302;18.082;2023-07-30T07:26:17;5.20;;;4.80;;
17650;SDS011;26663;59.302;18.082;2023-07-30T07:29:21;5.78;;;4.45;;
17650;SDS011;26663;59.302;18.082;2023-07-30T07:32:26;6.20;;;4.53;;
17650;SDS011;26663;59.302;18.082;2023-07-30T07:35:30;5.47;;;5.18;;
17650;SDS011;26663;59.302;18.082;2023-07-30T07:38:34;4.93;;;4.43;;
17650;SDS011;26663;59.302;18.082;2023-07-30T07:41:38;4.80;;;4.45;;
17650;SDS011;26663;59.302;18.082;2023-07-30T07:44:41;5.22;;;4.70;;
17650;SDS011;26663;59.302;18.082;2023-07-30T07:47:49;4.55;;;4.35;;
17650;SDS011;26663;59.302;18.082;2023-07-30T07:50:53;5.65;;;4.97;;
17650;SDS011;26663;59.302;18.082;2023-07-30T07:53:57;5.72;;;4.03;;
17650;SDS011;26663;59.302;18.082;2023-07-30T07:57:01;5.13;;;4.53;;
17650;SDS011;26663;59.302;18.082;2023-07-30T08:00:05;4.45;;;4.15;;
17650;SDS011;26663;59.302;18.082;2023-07-30T08:03:17;4.85;;;4.45;;
17650;SDS011;26663;59.302;18.082;2023-07-30T08:06:21;4.18;;;3.97;;
17650;SDS011;26663;59.302;18.082;2023-07-30T08:09:25;5.07;;;4.47;;
17650;SDS011;26663;59.302;18.082;2023-07-30T08:12:30;4.53;;;4.13;;
17650;SDS011;26663;59.302;18.082;2023-07-30T08:15:35;4.40;;;4.20;;
17650;SDS011;26663;59.302;18.082;2023-07-30T08:18:40;5.75;;;4.85;;
17650;SDS011;26663;59.302;18.082;2023-07-30T08:21:44;4.18;;;3.88;;
17650;SDS011;26663;59.302;18.082;2023-07-30T08:24:48;4.20;;;4.00;;
17650;SDS011;26663;59.302;18.082;2023-07-30T08:27:51;4.72;;;4.43;;
17650;SDS011;26663;59.302;18.082;2023-07-30T08:30:59;4.30;;;4.10;;
17650;SDS011;26663;59.302;18.082;2023-07-30T08:34:05;4.15;;;4.00;;
17650;SDS011;26663;59.302;18.082;2023-07-30T08:37:08;4.70;;;4.45;;
17650;SDS011;26663;59.302;18.082;2023-07-30T08:40:12;4.25;;;4.07;;
17650;SDS011;26663;59.302;18.082;2023-07-30T08:43:19;4.68;;;4.35;;
17650;SDS011;26663;59.302;18.082;2023-07-30T08:46:23;4.70;;;4.30;;
17650;SDS011;26663;59.302;18.082;2023-07-30T08:49:28;4.43;;;4.13;;
17650;SDS011;26663;59.302;18.082;2023-07-30T08:52:35;7.00;;;4.55;;
17650;SDS011;26663;59.302;18.082;2023-07-30T08:55:39;3.78;;;3.58;;
17650;SDS011;26663;59.302;18.082;2023-07-30T08:58:44;3.92;;;3.80;;
17650;SDS011;26663;59.302;18.082;2023-07-30T09:01:48;8.27;;;4.45;;
17650;SDS011;26663;59.302;18.082;2023-07-30T09:04:56;3.83;;;3.60;;
17650;SDS011;26663;59.302;18.082;2023-07-30T09:08:03;3.75;;;3.53;;
17650;SDS011;26663;59.302;18.082;2023-07-30T09:11:07;3.90;;;3.60;;
17650;SDS011;26663;59.302;18.082;2023-07-30T09:14:11;3.95;;;3.65;;
17650;SDS011;26663;59.302;18.082;2023-07-30T09:17:16;3.72;;;3.42;;
17650;SDS011;26663;59.302;18.082;2023-07-30T09:20:21;3.50;;;3.40;;
17650;SDS011;26663;59.302;18.082;2023-07-30T09:23:26;3.45;;;3.35;;
17650;SDS011;26663;59.302;18.082;2023-07-30T09:26:29;3.72;;;3.63;;
17650;SDS011;26663;59.302;18.082;2023-07-30T09:29:33;3.88;;;3.78;;
17650;SDS011;26663;59.302;18.082;2023-07-30T09:32:37;3.55;;;3.35;;
17650;SDS011;26663;59.302;18.082;2023-07-30T09:35:43;3.40;;;3.20;;
17650;SDS011;26663;59.302;18.082;2023-07-30T09:38:47;3.60;;;3.40;;
17650;SDS011;26663;59.302;18.082;2023-07-30T09:41:52;3.60;;;3.40;;
17650;SDS011;26663;59.302;18.082;2023-07-30T09:45:02;3.65;;;3.45;;
17650;SDS011;26663;59.302;18.082;2023-07-30T09:48:06;3.40;;;3.22;;
17650;SDS011;26663;59.302;18.082;2023-07-30T09:51:11;3.42;;;3.30;;
17650;SDS011;26663;59.302;18.082;2023-07-30T09:54:15;4.68;;;3.80;;
17650;SDS011;26663;59.302;18.082;2023-07-30T09:57:19;4.53;;;3.85;;
17650;SDS011;26663;59.302;18.082;2023-07-30T10:00:22;3.85;;;3.65;;
17650;SDS011;26663;59.302;18.082;2023-07-30T10:03:26;3.70;;;3.60;;
17650;SDS011;26663;59.302;18.082;2023-07-30T10:06:32;3.78;;;3.67;;
17650;SDS011;26663;59.302;18.082;2023-07-30T10:09:39;3.78;;;3.67;;
17650;SDS011;26663;59.302;18.082;2023-07-30T10:12:46;3.50;;;3.40;;
17650;SDS011;26663;59.302;18.082;2023-07-30T10:15:51;3.92;;;3.70;;
17650;SDS011;26663;59.302;18.082;2023-07-30T10:18:56;4.90;;;4.68;;
17650;SDS011;26663;59.302;18.082;2023-07-30T10:22:19;3.60;;;3.50;;
17650;SDS011;26663;59.302;18.082;2023-07-30T10:25:27;3.30;;;3.30;;
17650;SDS011;26663;59.302;18.082;2023-07-30T10:28:32;3.63;;;3.53;;
17650;SDS011;26663;59.302;18.082;2023-07-30T10:31:39;3.63;;;3.40;;
17650;SDS011;26663;59.302;18.082;2023-07-30T10:34:44;6.60;;;4.25;;
17650;SDS011;26663;59.302;18.082;2023-07-30T10:37:51;3.72;;;3.60;;
17650;SDS011;26663;59.302;18.082;2023-07-30T10:41:01;4.00;;;3.80;;
17650;SDS011;26663;59.302;18.082;2023-07-30T10:44:06;5.75;;;4.00;;
17650;SDS011;26663;59.302;18.082;2023-07-30T10:47:10;4.35;;;4.07;;
17650;SDS011;26663;59.302;18.082;2023-07-30T10:50:31;4.22;;;4.00;;
17650;SDS011;26663;59.302;18.082;2023-07-30T10:53:37;4.18;;;3.97;;
17650;SDS011;26663;59.302;18.082;2023-07-30T10:56:41;4.40;;;4.25;;
17650;SDS011;26663;59.302;18.082;2023-07-30T10:59:46;4.55;;;4.18;;
17650;SDS011;26663;59.302;18.082;2023-07-30T11:02:52;4.10;;;4.10;;
17650;SDS011;26663;59.302;18.082;2023-07-30T11:05:57;3.95;;;3.65;;
17650;SDS011;26663;59.302;18.082;2023-07-30T11:09:02;4.10;;;4.00;;
17650;SDS011;26663;59.302;18.082;2023-07-30T11:12:08;4.10;;;4.00;;
17650;SDS011;26663;59.302;18.082;2023-07-30T11:15:12;3.65;;;3.55;;
17650;SDS011;26663;59.302;18.082;2023-07-30T11:18:16;4.63;;;4.25;;
17650;SDS011;26663;59.302;18.082;2023-07-30T11:21:20;4.20;;;4.10;;
17650;SDS011;26663;59.302;18.082;2023-07-30T11:24:34;4.80;;;4.40;;
17650;SDS011;26663;59.302;18.082;2023-07-30T11:27:44;4.07;;;3.97;;
17650;SDS011;26663;59.302;18.082;2023-07-30T11:30:50;4.43;;;4.13;;
17650;SDS011;26663;59.302;18.082;2023-07-30T11:33:54;4.05;;;3.85;;
17650;SDS011;26663;59.302;18.082;2023-07-30T11:36:58;4.40;;;4.20;;
17650;SDS011;26663;59.302;18.082;2023-07-30T11:40:03;5.25;;;4.47;;
17650;SDS011;26663;59.302;18.082;2023-07-30T11:43:08;4.68;;;4.25;;
17650;SDS011;26663;59.302;18.082;2023-07-30T11:46:13;4.15;;;4.00;;
17650;SDS011;26663;59.302;18.082;2023-07-30T11:49:18;4.40;;;4.25;;
17650;SDS011;26663;59.302;18.082;2023-07-30T11:52:24;4.45;;;4.10;;
17650;SDS011;26663;59.302;18.082;2023-07-30T11:55:38;4.70;;;4.40;;
17650;SDS011;26663;59.302;18.082;2023-07-30T11:58:42;5.18;;;4.78;;
17650;SDS011;26663;59.302;18.082;2023-07-30T12:01:45;4.78;;;4.57;;
17650;SDS011;26663;59.302;18.082;2023-07-30T12:04:49;4.57;;;4.38;;
17650;SDS011;26663;59.302;18.082;2023-07-30T12:08:12;4.95;;;4.65;;
17650;SDS011;26663;59.302;18.082;2023-07-30T12:11:18;5.18;;;4.88;;
17650;SDS011;26663;59.302;18.082;2023-07-30T12:14:24;4.82;;;4.60;;
17650;SDS011;26663;59.302;18.082;2023-07-30T12:17:32;5.45;;;5.05;;
17650;SDS011;26663;59.302;18.082;2023-07-30T12:20:36;4.78;;;4.50;;
17650;SDS011;26663;59.302;18.082;2023-07-30T12:23:41;5.32;;;5.00;;
17650;SDS011;26663;59.302;18.082;2023-07-30T12:26:46;5.40;;;5.03;;
17650;SDS011;26663;59.302;18.082;2023-07-30T12:29:50;5.18;;;4.70;;
17650;SDS011;26663;59.302;18.082;2023-07-30T12:32:54;5.03;;;4.82;;
17650;SDS011;26663;59.302;18.082;2023-07-30T12:35:58;5.63;;;4.57;;
17650;SDS011;26663;59.302;18.082;2023-07-30T12:39:02;4.88;;;4.68;;
17650;SDS011;26663;59.302;18.082;2023-07-30T12:42:07;3.45;;;3.25;;
17650;SDS011;26663;59.302;18.082;2023-07-30T12:45:11;4.03;;;3.80;;
17650;SDS011;26663;59.302;18.082;2023-07-30T12:48:15;4.43;;;2.85;;
17650;SDS011;26663;59.302;18.082;2023-07-30T12:51:18;2.65;;;2.65;;
17650;SDS011;26663;59.302;18.082;2023-07-30T12:54:22;2.53;;;2.50;;
17650;SDS011;26663;59.302;18.082;2023-07-30T12:57:28;6.68;;;4.00;;
17650;SDS011;26663;59.302;18.082;2023-07-30T13:00:33;11.32;;;4.03;;
17650;SDS011;26663;59.302;18.082;2023-07-30T13:03:37;5.53;;;3.88;;
17650;SDS011;26663;59.302;18.082;2023-07-30T13:06:41;6.18;;;3.40;;
17650;SDS011;26663;59.302;18.082;2023-07-30T13:09:45;6.55;;;3.60;;
17650;SDS011;26663;59.302;18.082;2023-07-30T13:12:51;3.90;;;3.58;;
17650;SDS011;26663;59.302;18.082;2023-07-30T13:15:55;3.97;;;3.65;;
17650;SDS011;26663;59.302;18.082;2023-07-30T13:19:00;3.60;;;3.38;;
17650;SDS011;26663;59.302;18.082;2023-07-30T13:22:04;8.50;;;4.70;;
17650;SDS011;26663;59.302;18.082;2023-07-30T13:25:08;12.45;;;5.25;;
17650;SDS011;26663;59.302;18.082;2023-07-30T13:28:13;6.35;;;4.20;;
17650;SDS011;26663;59.302;18.082;2023-07-30T13:31:17;3.03;;;2.83;;
17650;SDS011;26663;59.302;18.082;2023-07-30T13:34:22;3.33;;;3.05;;
17650;SDS011;26663;59.302;18.082;2023-07-30T13:37:26;4.97;;;4.10;;
17650;SDS011;26663;59.302;18.082;2023-07-30T13:40:29;5.15;;;4.68;;
17650;SDS011;26663;59.302;18.082;2023-07-30T13:43:35;5.07;;;4.68;;
17650;SDS011;26663;59.302;18.082;2023-07-30T13:46:38;8.93;;;4.10;;
17650;SDS011;26663;59.302;18.082;2023-07-30T13:49:43;4.30;;;4.10;;
17650;SDS011;26663;59.302;18.082;2023-07-30T13:52:47;4.63;;;4.32;;
17650;SDS011;26663;59.302;18.082;2023-07-30T13:55:50;4.78;;;3.80;;
17650;SDS011;26663;59.302;18.082;2023-07-30T13:58:56;3.08;;;3.00;;
17650;SDS011;26663;59.302;18.082;2023-07-30T14:01:59;3.20;;;3.10;;
17650;SDS011;26663;59.302;18.082;2023-07-30T14:05:04;3.20;;;3.10;;
17650;SDS011;26663;59.302;18.082;2023-07-30T14:08:08;3.33;;;3.22;;
17650;SDS011;26663;59.302;18.082;2023-07-30T14:11:12;2.80;;;2.80;;
17650;SDS011;26663;59.302;18.082;2023-07-30T14:14:18;3.58;;;2.80;;
17650;SDS011;26663;59.302;18.082;2023-07-30T14:17:23;2.95;;;2.85;;
17650;SDS011;26663;59.302;18.082;2023-07-30T14:20:27;2.92;;;2.83;;
17650;SDS011;26663;59.302;18.082;2023-07-30T14:23:31;2.70;;;2.70;;
17650;SDS011;26663;59.302;18.082;2023-07-30T14:26:35;2.63;;;2.53;;
17650;SDS011;26663;59.302;18.082;2023-07-30T14:29:40;3.25;;;3.15;;
17650;SDS011;26663;59.302;18.082;2023-07-30T14:32:44;2.33;;;2.22;;
17650;SDS011;26663;59.302;18.082;2023-07-30T14:35:48;2.72;;;2.53;;
17650;SDS011;26663;59.302;18.082;2023-07-30T14:38:52;2.97;;;2.70;;
17650;SDS011;26663;59.302;18.082;2023-07-30T14:41:55;4.72;;;2.83;;
17650;SDS011;26663;59.302;18.082;2023-07-30T14:45:01;3.27;;;2.97;;
17650;SDS011;26663;59.302;18.082;2023-07-30T14:48:05;3.00;;;2.80;;
17650;SDS011;26663;59.302;18.082;2023-07-30T14:51:09;3.40;;;2.92;;
17650;SDS011;26663;59.302;18.082;2023-07-30T14:54:13;3.13;;;2.92;;
17650;SDS011;26663;59.302;18.082;2023-07-30T14:57:17;3.50;;;2.83;;
17650;SDS011;26663;59.302;18.082;2023-07-30T15:00:22;4.05;;;3.10;;
17650;SDS011;26663;59.302;18.082;2023-07-30T15:03:28;3.30;;;3.00;;
17650;SDS011;26663;59.302;18.082;2023-07-30T15:06:32;5.85;;;3.50;;
17650;SDS011;26663;59.302;18.082;2023-07-30T15:09:37;3.22;;;3.13;;
17650;SDS011;26663;59.302;18.082;2023-07-30T15:12:40;3.67;;;3.38;;
17650;SDS011;26663;59.302;18.082;2023-07-30T15:15:45;4.70;;;4.28;;
17650;SDS011;26663;59.302;18.082;2023-07-30T15:18:49;3.55;;;3.42;;
17650;SDS011;26663;59.302;18.082;2023-07-30T15:21:53;3.67;;;3.38;;
17650;SDS011;26663;59.302;18.082;2023-07-30T15:24:57;3.65;;;3.47;;
17650;SDS011;26663;59.302;18.082;2023-07-30T15:28:01;3.80;;;3.70;;
17650;SDS011;26663;59.302;18.082;2023-07-30T15:31:06;3.70;;;3.60;;
17650;SDS011;26663;59.302;18.082;2023-07-30T15:34:10;4.57;;;4.18;;
17650;SDS011;26663;59.302;18.082;2023-07-30T15:37:15;5.50;;;4.50;;
17650;SDS011;26663;59.302;18.082;2023-07-30T15:40:20;4.32;;;4.13;;
17650;SDS011;26663;59.302;18.082;2023-07-30T15:43:23;4.93;;;4.57;;
17650;SDS011;26663;59.302;18.082;2023-07-30T15:46:29;5.10;;;4.80;;
17650;SDS011;26663;59.302;18.082;2023-07-30T15:49:32;5.65;;;5.38;;
17650;SDS011;26663;59.302;18.082;2023-07-30T15:52:36;5.45;;;5.20;;
17650;SDS011;26663;59.302;18.082;2023-07-30T15:55:40;5.82;;;5.50;;
17650;SDS011;26663;59.302;18.082;2023-07-30T15:58:44;5.82;;;5.40;;
17650;SDS011;26663;59.302;18.082;2023-07-30T16:01:49;6.60;;;5.55;;
17650;SDS011;26663;59.302;18.082;2023-07-30T16:04:53;5.32;;;5.00;;
17650;SDS011;26663;59.302;18.082;2023-07-30T16:07:57;7.28;;;6.68;;
17650;SDS011;26663;59.302;18.082;2023-07-30T16:11:01;9.57;;;8.65;;
17650;SDS011;26663;59.302;18.082;2023-07-30T16:14:05;9.23;;;7.00;;
17650;SDS011;26663;59.302;18.082;2023-07-30T16:17:10;7.82;;;7.13;;
17650;SDS011;26663;59.302;18.082;2023-07-30T16:20:16;8.75;;;7.97;;
17650;SDS011;26663;59.302;18.082;2023-07-30T16:23:20;7.47;;;6.72;;
17650;SDS011;26663;59.302;18.082;2023-07-30T16:26:24;5.53;;;5.25;;
17650;SDS011;26663;59.302;18.082;2023-07-30T16:29:27;5.50;;;5.28;;
17650;SDS011;26663;59.302;18.082;2023-07-30T16:32:33;5.78;;;5.47;;
17650;SDS011;26663;59.302;18.082;2023-07-30T16:35:37;5.90;;;5.40;;
17650;SDS011;26663;59.302;18.082;2023-07-30T16:38:41;5.85;;;5.38;;
17650;SDS011;26663;59.302;18.082;2023-07-30T16:41:45;5.60;;;5.25;;
17650;SDS011;26663;59.302;18.082;2023-07-30T16:44:49;6.18;;;5.68;;
17650;SDS011;26663;59.302;18.082;2023-07-30T16:47:57;6.35;;;5.78;;
17650;SDS011;26663;59.302;18.082;2023-07-30T16:51:01;5.85;;;5.35;;
17650;SDS011;26663;59.302;18.082;2023-07-30T16:54:05;5.50;;;5.15;;
17650;SDS011;26663;59.302;18.082;2023-07-30T16:57:11;5.15;;;4.85;;
17650;SDS011;26663;59.302;18.082;2023-07-30T17:00:15;5.32;;;5.03;;
17650;SDS011;26663;59.302;18.082;2023-07-30T17:03:20;5.18;;;4.88;;
17650;SDS011;26663;59.302;18.082;2023-07-30T17:06:24;5.38;;;5.18;;
17650;SDS011;26663;59.302;18.082;2023-07-30T17:09:28;5.72;;;5.32;;
17650;SDS011;26663;59.302;18.082;2023-07-30T17:12:32;7.05;;;5.50;;
17650;SDS011;26663;59.302;18.082;2023-07-30T17:15:36;6.07;;;5.30;;
17650;SDS011;26663;59.302;18.082;2023-07-30T17:18:41;6.32;;;5.85;;
17650;SDS011;26663;59.302;18.082;2023-07-30T17:21:45;5.40;;;5.13;;
17650;SDS011;26663;59.302;18.082;2023-07-30T17:24:48;4.97;;;4.78;;
17650;SDS011;26663;59.302;18.082;2023-07-30T17:27:55;5.55;;;5.10;;
17650;SDS011;26663;59.302;18.082;2023-07-30T17:30:59;5.35;;;4.85;;
17650;SDS011;26663;59.302;18.082;2023-07-30T17:34:05;5.38;;;4.90;;
17650;SDS011;26663;59.302;18.082;2023-07-30T17:37:08;4.78;;;4.50;;
17650;SDS011;26663;59.302;18.082;2023-07-30T17:40:12;4.47;;;4.38;;
17650;SDS011;26663;59.302;18.082;2023-07-30T17:43:16;2.55;;;2.45;;
17650;SDS011;26663;59.302;18.082;2023-07-30T17:46:20;2.60;;;2.50;;
17650;SDS011;26663;59.302;18.082;2023-07-30T17:49:26;2.55;;;2.55;;
17650;SDS011;26663;59.302;18.082;2023-07-30T17:52:31;3.08;;;2.97;;
17650;SDS011;26663;59.302;18.082;2023-07-30T17:55:34;2.67;;;2.50;;
17650;SDS011;26663;59.302;18.082;2023-07-30T17:58:38;2.53;;;2.42;;
17650;SDS011;26663;59.302;18.082;2023-07-30T18:01:42;2.10;;;2.10;;
17650;SDS011;26663;59.302;18.082;2023-07-30T18:04:47;1.88;;;1.77;;
17650;SDS011;26663;59.302;18.082;2023-07-30T18:07:51;1.83;;;1.75;;
17650;SDS011;26663;59.302;18.082;2023-07-30T18:10:55;3.85;;;1.75;;
17650;SDS011;26663;59.302;18.082;2023-07-30T18:13:59;1.50;;;1.50;;